sensor_id;sensor_type;location;lat;lon;timestamp;pressure;altitude;pressure_sealevel;temperature;humidity
21100;BME280;10708;50.824;4.408;2022-08-03T00:00:43;100607.78;;;22.61;100.00
21100;BME280;10708;50.824;4.408;2022-08-03T00:05:47;100609.28;;;22.54;100.00
21100;BME280;10708;50.824;4.408;2022-08-03T00:10:49;100604.53;;;22.46;100.00
21100;BME280;10708;50.824;4.408;2022-08-03T00:15:51;100593.50;;;22.39;100.00
21100;BME280;10708;50.824;4.408;2022-08-03T00:20:54;100605.72;;;22.32;100.00
21100;BME280;10708;50.824;4.408;2022-08-03T00:25:57;100592.69;;;22.28;100.00
21100;BME280;10708;50.824;4.408;2022-08-03T00:30:59;100593.94;;;22.24;100.00
21100;BME280;10708;50.824;4.408;2022-08-03T00:36:02;100587.53;;;22.15;100.00
21100;BME280;10708;50.824;4.408;2022-08-03T00:41:05;100595.50;;;22.05;100.00
21100;BME280;10708;50.824;4.408;2022-08-03T00:46:07;100592.44;;;21.99;100.00
21100;BME280;10708;50.824;4.408;2022-08-03T00:51:10;100586.72;;;21.92;100.00
21100;BME280;10708;50.824;4.408;2022-08-03T00:56:13;100583.09;;;21.82;100.00
21100;BME280;10708;50.824;4.408;2022-08-03T01:01:15;100575.53;;;21.76;100.00
21100;BME280;10708;50.824;4.408;2022-08-03T01:06:24;100568.13;;;21.68;100.00
21100;BME280;10708;50.824;4.408;2022-08-03T01:11:37;100569.72;;;21.60;100.00
21100;BME280;10708;50.824;4.408;2022-08-03T01:16:46;100565.13;;;21.51;100.00
21100;BME280;10708;50.824;4.408;2022-08-03T01:22:02;100566.72;;;21.42;100.00
21100;BME280;10708;50.824;4.408;2022-08-03T01:27:12;100565.53;;;21.35;100.00
21100;BME280;10708;50.824;4.408;2022-08-03T01:32:19;100563.44;;;21.27;100.00
21100;BME280;10708;50.824;4.408;2022-08-03T01:37:26;100559.56;;;21.20;100.00
21100;BME280;10708;50.824;4.408;2022-08-03T01:42:32;100555.75;;;21.12;100.00
21100;BME280;10708;50.824;4.408;2022-08-03T01:47:37;100553.59;;;21.06;100.00
21100;BME280;10708;50.824;4.408;2022-08-03T01:52:42;100550.53;;;20.99;100.00
21100;BME280;10708;50.824;4.408;2022-08-03T01:57:47;100544.69;;;20.94;100.00
21100;BME280;10708;50.824;4.408;2022-08-03T02:02:53;100544.06;;;20.90;100.00
21100;BME280;10708;50.824;4.408;2022-08-03T02:07:58;100543.44;;;20.87;100.00
21100;BME280;10708;50.824;4.408;2022-08-03T02:13:03;100541.88;;;20.84;100.00
21100;BME280;10708;50.824;4.408;2022-08-03T02:18:08;100539.44;;;20.81;100.00
21100;BME280;10708;50.824;4.408;2022-08-03T02:23:13;100534.59;;;20.75;100.00
21100;BME280;10708;50.824;4.408;2022-08-03T02:28:17;100544.31;;;20.65;100.00
21100;BME280;10708;50.824;4.408;2022-08-03T02:33:25;100535.88;;;20.58;100.00
21100;BME280;10708;50.824;4.408;2022-08-03T02:38:32;100538.31;;;20.50;100.00
21100;BME280;10708;50.824;4.408;2022-08-03T02:43:34;100533.66;;;20.41;100.00
21100;BME280;10708;50.824;4.408;2022-08-03T02:48:40;100531.47;;;20.35;100.00
21100;BME280;10708;50.824;4.408;2022-08-03T02:53:44;100530.06;;;20.30;100.00
21100;BME280;10708;50.824;4.408;2022-08-03T02:58:47;100529.47;;;20.26;100.00
21100;BME280;10708;50.824;4.408;2022-08-03T03:03:53;100526.41;;;20.19;100.00
21100;BME280;10708;50.824;4.408;2022-08-03T03:08:56;100524.22;;;20.13;100.00
21100;BME280;10708;50.824;4.408;2022-08-03T03:13:59;100525.28;;;20.11;100.00
21100;BME280;10708;50.824;4.408;2022-08-03T03:19:03;100519.44;;;20.06;100.00
21100;BME280;10708;50.824;4.408;2022-08-03T03:24:06;100517.22;;;20.00;100.00
21100;BME280;10708;50.824;4.408;2022-08-03T03:29:10;100513.09;;;19.96;100.00
21100;BME280;10708;50.824;4.408;2022-08-03T03:34:14;100516.94;;;19.92;100.00
21100;BME280;10708;50.824;4.408;2022-08-03T03:39:17;100511.09;;;19.86;100.00
21100;BME280;10708;50.824;4.408;2022-08-03T03:44:19;100503.44;;;19.82;100.00
21100;BME280;10708;50.824;4.408;2022-08-03T03:49:23;100504.50;;;19.79;100.00
21100;BME280;10708;50.824;4.408;2022-08-03T03:54:25;100505.94;;;19.72;100.00
21100;BME280;10708;50.824;4.408;2022-08-03T03:59:27;100517.09;;;19.66;100.00
21100;BME280;10708;50.824;4.408;2022-08-03T04:04:32;100517.19;;;19.65;100.00
21100;BME280;10708;50.824;4.408;2022-08-03T04:09:53;100511.34;;;19.60;100.00
21100;BME280;10708;50.824;4.408;2022-08-03T04:15:13;100520.41;;;19.57;100.00
21100;BME280;10708;50.824;4.408;2022-08-03T04:20:19;100518.84;;;19.55;100.00
21100;BME280;10708;50.824;4.408;2022-08-03T04:25:25;100519.69;;;19.55;100.00
21100;BME280;10708;50.824;4.408;2022-08-03T04:30:29;100524.09;;;19.56;100.00
21100;BME280;10708;50.824;4.408;2022-08-03T04:35:35;100529.28;;;19.58;100.00
21100;BME280;10708;50.824;4.408;2022-08-03T04:40:40;100525.75;;;19.57;100.00
21100;BME280;10708;50.824;4.408;2022-08-03T04:45:46;100535.47;;;19.58;100.00
21100;BME280;10708;50.824;4.408;2022-08-03T04:50:50;100539.00;;;19.59;100.00
21100;BME280;10708;50.824;4.408;2022-08-03T04:55:52;100537.09;;;19.61;100.00
21100;BME280;10708;50.824;4.408;2022-08-03T05:00:55;100541.34;;;19.63;100.00
21100;BME280;10708;50.824;4.408;2022-08-03T05:05:58;100541.00;;;19.68;100.00
21100;BME280;10708;50.824;4.408;2022-08-03T05:11:00;100538.22;;;19.69;100.00
21100;BME280;10708;50.824;4.408;2022-08-03T05:16:03;100547.63;;;19.75;100.00
21100;BME280;10708;50.824;4.408;2022-08-03T05:21:07;100554.94;;;19.84;100.00
21100;BME280;10708;50.824;4.408;2022-08-03T05:26:10;100553.53;;;19.91;100.00
21100;BME280;10708;50.824;4.408;2022-08-03T05:31:12;100547.47;;;20.00;100.00
21100;BME280;10708;50.824;4.408;2022-08-03T05:36:16;100561.84;;;20.10;100.00
21100;BME280;10708;50.824;4.408;2022-08-03T05:41:18;100557.19;;;20.25;100.00
21100;BME280;10708;50.824;4.408;2022-08-03T05:46:21;100555.28;;;20.38;100.00
21100;BME280;10708;50.824;4.408;2022-08-03T05:51:24;100557.25;;;20.47;100.00
21100;BME280;10708;50.824;4.408;2022-08-03T05:56:28;100565.09;;;20.61;100.00
21100;BME280;10708;50.824;4.408;2022-08-03T06:01:31;100562.56;;;20.71;100.00
21100;BME280;10708;50.824;4.408;2022-08-03T06:06:35;100567.81;;;20.84;100.00
21100;BME280;10708;50.824;4.408;2022-08-03T06:11:37;100564.41;;;20.93;100.00
21100;BME280;10708;50.824;4.408;2022-08-03T06:16:40;100568.91;;;21.04;100.00
21100;BME280;10708;50.824;4.408;2022-08-03T06:21:43;100566.94;;;21.17;100.00
21100;BME280;10708;50.824;4.408;2022-08-03T06:26:45;100570.16;;;21.33;100.00
21100;BME280;10708;50.824;4.408;2022-08-03T06:31:48;100568.53;;;21.53;100.00
21100;BME280;10708;50.824;4.408;2022-08-03T06:36:52;100575.31;;;21.68;100.00
21100;BME280;10708;50.824;4.408;2022-08-03T06:41:55;100571.63;;;21.80;100.00
21100;BME280;10708;50.824;4.408;2022-08-03T06:46:57;100587.81;;;21.90;100.00
21100;BME280;10708;50.824;4.408;2022-08-03T06:52:01;100580.25;;;21.95;100.00
21100;BME280;10708;50.824;4.408;2022-08-03T06:57:04;100588.41;;;22.04;100.00
21100;BME280;10708;50.824;4.408;2022-08-03T07:02:08;100581.97;;;22.28;100.00
21100;BME280;10708;50.824;4.408;2022-08-03T07:07:12;100585.66;;;23.19;100.00
21100;BME280;10708;50.824;4.408;2022-08-03T07:12:14;100591.53;;;24.80;100.00
21100;BME280;10708;50.824;4.408;2022-08-03T07:17:16;100594.16;;;26.36;100.00
21100;BME280;10708;50.824;4.408;2022-08-03T07:22:20;100599.06;;;27.70;100.00
21100;BME280;10708;50.824;4.408;2022-08-03T07:27:22;100586.69;;;28.58;100.00
21100;BME280;10708;50.824;4.408;2022-08-03T07:32:29;100589.59;;;29.45;100.00
21100;BME280;10708;50.824;4.408;2022-08-03T07:37:33;100583.72;;;30.03;100.00
21100;BME280;10708;50.824;4.408;2022-08-03T07:42:35;100582.38;;;30.82;100.00
21100;BME280;10708;50.824;4.408;2022-08-03T07:47:37;100575.34;;;30.50;100.00
21100;BME280;10708;50.824;4.408;2022-08-03T07:52:41;100590.09;;;31.37;100.00
21100;BME280;10708;50.824;4.408;2022-08-03T07:57:59;100583.19;;;31.64;100.00
21100;BME280;10708;50.824;4.408;2022-08-03T08:03:02;100575.22;;;32.05;100.00
21100;BME280;10708;50.824;4.408;2022-08-03T08:08:06;100574.13;;;32.63;100.00
21100;BME280;10708;50.824;4.408;2022-08-03T08:13:09;100578.59;;;32.99;100.00
21100;BME280;10708;50.824;4.408;2022-08-03T08:18:11;100571.91;;;33.02;100.00
21100;BME280;10708;50.824;4.408;2022-08-03T08:23:14;100572.22;;;33.20;100.00
21100;BME280;10708;50.824;4.408;2022-08-03T08:28:22;100558.09;;;33.10;100.00
21100;BME280;10708;50.824;4.408;2022-08-03T08:33:24;100548.16;;;33.30;100.00
21100;BME280;10708;50.824;4.408;2022-08-03T08:38:28;100558.06;;;33.38;100.00
21100;BME280;10708;50.824;4.408;2022-08-03T08:43:31;100554.56;;;33.57;100.00
21100;BME280;10708;50.824;4.408;2022-08-03T08:48:35;100556.50;;;33.69;100.00
21100;BME280;10708;50.824;4.408;2022-08-03T08:53:46;100558.78;;;33.53;100.00
21100;BME280;10708;50.824;4.408;2022-08-03T08:58:51;100559.63;;;33.60;100.00
21100;BME280;10708;50.824;4.408;2022-08-03T09:03:55;100554.34;;;33.52;100.00
21100;BME280;10708;50.824;4.408;2022-08-03T09:08:59;100555.47;;;33.64;100.00
21100;BME280;10708;50.824;4.408;2022-08-03T09:14:01;100551.38;;;34.07;100.00
21100;BME280;10708;50.824;4.408;2022-08-03T09:19:10;100551.81;;;34.11;100.00
21100;BME280;10708;50.824;4.408;2022-08-03T09:24:20;100552.50;;;33.65;100.00
21100;BME280;10708;50.824;4.408;2022-08-03T09:29:23;100561.16;;;33.76;100.00
21100;BME280;10708;50.824;4.408;2022-08-03T09:34:25;100559.44;;;33.68;100.00
21100;BME280;10708;50.824;4.408;2022-08-03T09:39:36;100552.41;;;33.46;100.00
21100;BME280;10708;50.824;4.408;2022-08-03T09:44:39;100562.50;;;33.45;100.00
21100;BME280;10708;50.824;4.408;2022-08-03T09:49:56;100558.88;;;33.31;100.00
21100;BME280;10708;50.824;4.408;2022-08-03T09:55:00;100558.63;;;33.26;100.00
21100;BME280;10708;50.824;4.408;2022-08-03T10:00:08;100558.38;;;33.21;100.00
21100;BME280;10708;50.824;4.408;2022-08-03T10:05:12;100548.16;;;33.30;100.00
21100;BME280;10708;50.824;4.408;2022-08-03T10:10:16;100539.81;;;33.04;100.00
21100;BME280;10708;50.824;4.408;2022-08-03T10:15:19;100529.59;;;33.60;100.00
21100;BME280;10708;50.824;4.408;2022-08-03T10:20:21;100534.38;;;34.12;100.00
21100;BME280;10708;50.824;4.408;2022-08-03T10:25:29;100535.22;;;34.59;97.31
21100;BME280;10708;50.824;4.408;2022-08-03T10:30:32;100527.03;;;34.39;100.00
21100;BME280;10708;50.824;4.408;2022-08-03T10:35:36;100520.06;;;34.76;98.33
21100;BME280;10708;50.824;4.408;2022-08-03T10:40:43;100507.13;;;35.16;100.00
21100;BME280;10708;50.824;4.408;2022-08-03T10:45:45;100508.75;;;35.81;100.00
21100;BME280;10708;50.824;4.408;2022-08-03T10:50:48;100507.66;;;36.14;100.00
21100;BME280;10708;50.824;4.408;2022-08-03T10:55:53;100508.22;;;35.98;89.73
21100;BME280;10708;50.824;4.408;2022-08-03T11:01:12;100493.22;;;36.32;97.14
21100;BME280;10708;50.824;4.408;2022-08-03T11:06:16;100486.69;;;36.01;100.00
21100;BME280;10708;50.824;4.408;2022-08-03T11:11:29;100491.22;;;34.93;91.94
21100;BME280;10708;50.824;4.408;2022-08-03T11:16:33;100483.97;;;33.41;92.86
21100;BME280;10708;50.824;4.408;2022-08-03T11:21:55;100491.91;;;32.60;93.93
21100;BME280;10708;50.824;4.408;2022-08-03T11:27:18;100490.69;;;31.92;95.28
21100;BME280;10708;50.824;4.408;2022-08-03T11:32:53;100485.44;;;31.54;95.27
21100;BME280;10708;50.824;4.408;2022-08-03T11:38:10;100491.53;;;31.21;97.86
21100;BME280;10708;50.824;4.408;2022-08-03T11:43:44;100493.41;;;30.91;98.22
21100;BME280;10708;50.824;4.408;2022-08-03T11:48:48;100484.13;;;30.85;98.00
21100;BME280;10708;50.824;4.408;2022-08-03T11:53:52;100483.66;;;30.81;97.65
21100;BME280;10708;50.824;4.408;2022-08-03T11:58:56;100488.94;;;30.83;98.44
21100;BME280;10708;50.824;4.408;2022-08-03T12:04:02;100481.50;;;30.92;97.93
21100;BME280;10708;50.824;4.408;2022-08-03T12:09:14;100473.78;;;30.95;98.89
21100;BME280;10708;50.824;4.408;2022-08-03T12:14:19;100474.66;;;30.96;97.76
21100;BME280;10708;50.824;4.408;2022-08-03T12:19:21;100469.31;;;30.88;97.38
21100;BME280;10708;50.824;4.408;2022-08-03T12:24:23;100479.72;;;30.99;98.40
21100;BME280;10708;50.824;4.408;2022-08-03T12:29:29;100473.06;;;31.01;98.71
21100;BME280;10708;50.824;4.408;2022-08-03T12:34:44;100469.13;;;31.18;98.92
21100;BME280;10708;50.824;4.408;2022-08-03T12:39:49;100468.25;;;31.33;95.97
21100;BME280;10708;50.824;4.408;2022-08-03T12:44:53;100472.88;;;31.53;97.90
21100;BME280;10708;50.824;4.408;2022-08-03T12:49:55;100467.03;;;31.57;97.39
21100;BME280;10708;50.824;4.408;2022-08-03T12:54:59;100458.53;;;31.45;95.70
21100;BME280;10708;50.824;4.408;2022-08-03T13:00:11;100452.72;;;31.48;97.06
21100;BME280;10708;50.824;4.408;2022-08-03T13:05:15;100450.53;;;31.58;95.84
21100;BME280;10708;50.824;4.408;2022-08-03T13:10:27;100453.59;;;31.70;97.25
21100;BME280;10708;50.824;4.408;2022-08-03T13:15:31;100446.41;;;31.83;97.24
21100;BME280;10708;50.824;4.408;2022-08-03T13:20:34;100447.53;;;31.96;95.58
21100;BME280;10708;50.824;4.408;2022-08-03T13:25:36;100439.69;;;32.07;94.40
21100;BME280;10708;50.824;4.408;2022-08-03T13:30:40;100434.72;;;31.89;94.16
21100;BME280;10708;50.824;4.408;2022-08-03T13:35:42;100431.63;;;31.93;92.68
21100;BME280;10708;50.824;4.408;2022-08-03T13:40:44;100430.38;;;31.95;91.87
21100;BME280;10708;50.824;4.408;2022-08-03T13:45:48;100414.59;;;32.12;92.00
21100;BME280;10708;50.824;4.408;2022-08-03T13:50:50;100415.88;;;32.16;86.34
21100;BME280;10708;50.824;4.408;2022-08-03T13:55:52;100426.03;;;32.22;89.80
21100;BME280;10708;50.824;4.408;2022-08-03T14:00:56;100413.88;;;32.24;91.53
21100;BME280;10708;50.824;4.408;2022-08-03T14:05:58;100407.88;;;32.36;93.33
21100;BME280;10708;50.824;4.408;2022-08-03T14:11:03;100408.50;;;32.10;87.97
21100;BME280;10708;50.824;4.408;2022-08-03T14:16:07;100410.16;;;32.04;92.41
21100;BME280;10708;50.824;4.408;2022-08-03T14:21:09;100393.00;;;32.10;93.03
21100;BME280;10708;50.824;4.408;2022-08-03T14:26:13;100387.34;;;32.12;93.69
21100;BME280;10708;50.824;4.408;2022-08-03T14:31:19;100391.28;;;32.31;94.93
21100;BME280;10708;50.824;4.408;2022-08-03T14:36:21;100382.59;;;32.55;94.01
21100;BME280;10708;50.824;4.408;2022-08-03T14:41:23;100382.00;;;32.59;87.76
21100;BME280;10708;50.824;4.408;2022-08-03T14:46:28;100362.72;;;32.61;91.89
21100;BME280;10708;50.824;4.408;2022-08-03T14:51:30;100363.91;;;32.45;93.32
21100;BME280;10708;50.824;4.408;2022-08-03T14:56:32;100364.16;;;32.50;85.66
21100;BME280;10708;50.824;4.408;2022-08-03T15:01:36;100369.41;;;32.58;90.20
21100;BME280;10708;50.824;4.408;2022-08-03T15:06:38;100357.47;;;32.53;88.41
21100;BME280;10708;50.824;4.408;2022-08-03T15:11:41;100348.25;;;32.54;91.24
21100;BME280;10708;50.824;4.408;2022-08-03T15:16:45;100348.66;;;32.57;90.53
21100;BME280;10708;50.824;4.408;2022-08-03T15:21:47;100336.88;;;32.50;91.80
21100;BME280;10708;50.824;4.408;2022-08-03T15:26:50;100331.84;;;32.47;91.67
21100;BME280;10708;50.824;4.408;2022-08-03T15:31:54;100314.84;;;32.45;89.52
21100;BME280;10708;50.824;4.408;2022-08-03T15:36:57;100313.63;;;32.54;90.95
21100;BME280;10708;50.824;4.408;2022-08-03T15:41:59;100307.81;;;32.64;88.89
21100;BME280;10708;50.824;4.408;2022-08-03T15:47:03;100308.69;;;32.71;89.76
21100;BME280;10708;50.824;4.408;2022-08-03T15:52:06;100290.63;;;32.63;87.33
21100;BME280;10708;50.824;4.408;2022-08-03T15:57:10;100300.16;;;32.40;86.98
21100;BME280;10708;50.824;4.408;2022-08-03T16:02:13;100296.28;;;32.21;84.68
21100;BME280;10708;50.824;4.408;2022-08-03T16:07:16;100299.34;;;32.11;90.13
21100;BME280;10708;50.824;4.408;2022-08-03T16:12:38;100295.13;;;32.09;85.56
21100;BME280;10708;50.824;4.408;2022-08-03T16:17:42;100286.81;;;32.17;85.68
21100;BME280;10708;50.824;4.408;2022-08-03T16:22:45;100286.09;;;32.36;85.45
21100;BME280;10708;50.824;4.408;2022-08-03T16:27:48;100285.50;;;32.47;87.52
21100;BME280;10708;50.824;4.408;2022-08-03T16:32:51;100279.06;;;32.61;88.49
21100;BME280;10708;50.824;4.408;2022-08-03T16:37:54;100275.91;;;32.64;89.97
21100;BME280;10708;50.824;4.408;2022-08-03T16:42:56;100280.31;;;32.52;86.50
21100;BME280;10708;50.824;4.408;2022-08-03T16:48:00;100269.59;;;32.51;89.88
21100;BME280;10708;50.824;4.408;2022-08-03T16:53:04;100280.09;;;32.54;91.13
21100;BME280;10708;50.824;4.408;2022-08-03T16:58:08;100274.00;;;32.52;91.42
21100;BME280;10708;50.824;4.408;2022-08-03T17:03:14;100279.00;;;32.42;89.55
21100;BME280;10708;50.824;4.408;2022-08-03T17:08:20;100274.41;;;32.14;87.13
21100;BME280;10708;50.824;4.408;2022-08-03T17:13:24;100271.84;;;32.06;90.03
21100;BME280;10708;50.824;4.408;2022-08-03T17:18:29;100275.78;;;31.97;91.17
21100;BME280;10708;50.824;4.408;2022-08-03T17:23:39;100274.53;;;31.93;90.62
21100;BME280;10708;50.824;4.408;2022-08-03T17:28:47;100272.41;;;31.95;91.99
21100;BME280;10708;50.824;4.408;2022-08-03T17:33:51;100275.72;;;31.84;91.21
21100;BME280;10708;50.824;4.408;2022-08-03T17:38:54;100270.41;;;31.76;90.63
21100;BME280;10708;50.824;4.408;2022-08-03T17:43:57;100272.75;;;31.79;89.95
21100;BME280;10708;50.824;4.408;2022-08-03T17:49:01;100274.91;;;31.90;92.12
21100;BME280;10708;50.824;4.408;2022-08-03T17:54:09;100271.53;;;31.88;92.16
21100;BME280;10708;50.824;4.408;2022-08-03T17:59:19;100273.13;;;31.76;91.86
21100;BME280;10708;50.824;4.408;2022-08-03T18:04:26;100268.25;;;31.65;92.72
21100;BME280;10708;50.824;4.408;2022-08-03T18:09:31;100270.66;;;31.53;92.58
21100;BME280;10708;50.824;4.408;2022-08-03T18:14:42;100264.31;;;31.46;92.69
21100;BME280;10708;50.824;4.408;2022-08-03T18:19:48;100273.06;;;31.41;92.54
21100;BME280;10708;50.824;4.408;2022-08-03T18:24:51;100271.13;;;31.35;92.95
21100;BME280;10708;50.824;4.408;2022-08-03T18:29:55;100281.28;;;31.27;93.61
21100;BME280;10708;50.824;4.408;2022-08-03T18:35:01;100283.31;;;31.18;92.92
21100;BME280;10708;50.824;4.408;2022-08-03T18:40:05;100275.94;;;31.12;93.59
21100;BME280;10708;50.824;4.408;2022-08-03T18:45:09;100280.44;;;31.05;93.56
21100;BME280;10708;50.824;4.408;2022-08-03T18:50:14;100283.56;;;31.02;94.26
21100;BME280;10708;50.824;4.408;2022-08-03T18:55:25;100273.44;;;30.96;92.98
21100;BME280;10708;50.824;4.408;2022-08-03T19:00:29;100281.53;;;30.89;94.27
21100;BME280;10708;50.824;4.408;2022-08-03T19:05:40;100278.88;;;30.74;94.55
21100;BME280;10708;50.824;4.408;2022-08-03T19:10:46;100279.88;;;30.52;97.47
21100;BME280;10708;50.824;4.408;2022-08-03T19:15:54;100277.44;;;30.28;100.00
21100;BME280;10708;50.824;4.408;2022-08-03T19:20:59;100284.00;;;30.04;100.00
21100;BME280;10708;50.824;4.408;2022-08-03T19:26:03;100278.63;;;29.81;100.00
21100;BME280;10708;50.824;4.408;2022-08-03T19:31:08;100287.66;;;29.59;100.00
21100;BME280;10708;50.824;4.408;2022-08-03T19:36:13;100281.59;;;29.34;100.00
21100;BME280;10708;50.824;4.408;2022-08-03T19:41:16;100292.44;;;29.11;100.00
21100;BME280;10708;50.824;4.408;2022-08-03T19:46:21;100298.03;;;28.87;100.00
21100;BME280;10708;50.824;4.408;2022-08-03T19:51:28;100300.69;;;28.64;100.00
21100;BME280;10708;50.824;4.408;2022-08-03T19:56:31;100304.00;;;28.43;100.00
21100;BME280;10708;50.824;4.408;2022-08-03T20:01:35;100309.47;;;28.27;100.00
21100;BME280;10708;50.824;4.408;2022-08-03T20:06:40;100300.03;;;28.15;100.00
21100;BME280;10708;50.824;4.408;2022-08-03T20:11:43;100308.84;;;28.09;100.00
21100;BME280;10708;50.824;4.408;2022-08-03T20:16:47;100307.34;;;27.98;100.00
21100;BME280;10708;50.824;4.408;2022-08-03T20:21:52;100313.13;;;27.87;100.00
21100;BME280;10708;50.824;4.408;2022-08-03T20:26:55;100312.28;;;27.78;100.00
21100;BME280;10708;50.824;4.408;2022-08-03T20:32:00;100304.53;;;27.67;100.00
21100;BME280;10708;50.824;4.408;2022-08-03T20:37:04;100314.84;;;27.55;100.00
21100;BME280;10708;50.824;4.408;2022-08-03T20:42:06;100318.38;;;27.48;100.00
21100;BME280;10708;50.824;4.408;2022-08-03T20:47:12;100318.06;;;27.35;100.00
21100;BME280;10708;50.824;4.408;2022-08-03T20:52:16;100325.28;;;27.26;100.00
21100;BME280;10708;50.824;4.408;2022-08-03T20:57:19;100324.81;;;27.14;100.00
21100;BME280;10708;50.824;4.408;2022-08-03T21:02:22;100317.00;;;27.03;100.00
21100;BME280;10708;50.824;4.408;2022-08-03T21:07:27;100315.31;;;26.94;100.00
21100;BME280;10708;50.824;4.408;2022-08-03T21:12:38;100308.50;;;26.90;100.00
21100;BME280;10708;50.824;4.408;2022-08-03T21:17:44;100311.03;;;26.83;100.00
21100;BME280;10708;50.824;4.408;2022-08-03T21:22:51;100313.88;;;26.74;100.00
21100;BME280;10708;50.824;4.408;2022-08-03T21:27:54;100318.72;;;26.62;100.00
21100;BME280;10708;50.824;4.408;2022-08-03T21:32:57;100311.78;;;26.52;100.00
21100;BME280;10708;50.824;4.408;2022-08-03T21:38:01;100309.91;;;26.44;100.00
21100;BME280;10708;50.824;4.408;2022-08-03T21:43:22;100312.72;;;26.34;100.00
21100;BME280;10708;50.824;4.408;2022-08-03T21:48:25;100298.00;;;26.29;100.00
21100;BME280;10708;50.824;4.408;2022-08-03T21:53:31;100297.63;;;26.24;100.00
21100;BME280;10708;50.824;4.408;2022-08-03T21:58:40;100289.84;;;26.21;100.00
21100;BME280;10708;50.824;4.408;2022-08-03T22:03:47;100287.63;;;26.16;100.00
21100;BME280;10708;50.824;4.408;2022-08-03T22:08:56;100288.44;;;26.08;100.00
21100;BME280;10708;50.824;4.408;2022-08-03T22:14:01;100287.00;;;25.96;100.00
21100;BME280;10708;50.824;4.408;2022-08-03T22:19:03;100290.81;;;25.86;100.00
21100;BME280;10708;50.824;4.408;2022-08-03T22:24:07;100284.53;;;25.77;100.00
21100;BME280;10708;50.824;4.408;2022-08-03T22:29:10;100290.44;;;25.72;100.00
21100;BME280;10708;50.824;4.408;2022-08-03T22:34:12;100283.94;;;25.65;100.00
21100;BME280;10708;50.824;4.408;2022-08-03T22:39:16;100279.06;;;25.61;100.00
21100;BME280;10708;50.824;4.408;2022-08-03T22:44:22;100281.50;;;25.54;100.00
21100;BME280;10708;50.824;4.408;2022-08-03T22:49:37;100279.56;;;25.47;100.00
21100;BME280;10708;50.824;4.408;2022-08-03T22:54:42;100274.97;;;25.39;100.00
21100;BME280;10708;50.824;4.408;2022-08-03T22:59:44;100274.06;;;25.30;100.00
21100;BME280;10708;50.824;4.408;2022-08-03T23:04:49;100275.72;;;25.23;100.00
21100;BME280;10708;50.824;4.408;2022-08-03T23:09:54;100270.56;;;25.12;100.00
21100;BME280;10708;50.824;4.408;2022-08-03T23:15:01;100273.19;;;25.04;100.00
21100;BME280;10708;50.824;4.408;2022-08-03T23:20:05;100278.66;;;24.94;100.00
21100;BME280;10708;50.824;4.408;2022-08-03T23:25:09;100271.97;;;24.89;100.00
21100;BME280;10708;50.824;4.408;2022-08-03T23:30:12;100276.00;;;24.85;100.00
21100;BME280;10708;50.824;4.408;2022-08-03T23:35:14;100267.66;;;24.78;100.00
21100;BME280;10708;50.824;4.408;2022-08-03T23:40:35;100269.13;;;24.73;100.00
21100;BME280;10708;50.824;4.408;2022-08-03T23:45:38;100261.50;;;24.68;100.00
21100;BME280;10708;50.824;4.408;2022-08-03T23:50:43;100254.41;;;24.67;100.00
21100;BME280;10708;50.824;4.408;2022-08-03T23:55:55;100254.91;;;24.62;100.00
